Time;durP1;ratioP1;P1;durP2;ratioP2;P2;SDS_P1;SDS_P2;PMS_P1;PMS_P2;Temp;Humidity;BMP_temperature;BMP_pressure;BME280_temperature;BME280_humidity;BME280_pressure;Samples;Min_cycle;Max_cycle;Signal;HPM_P1;HPM_P2
2023/06/26 00:01:58;;;;;;;;;;;;;;;25.48;44.47;101379.28;4132298;28;19926;-74
2023/06/26 00:04:00;;;;;;;;;;;;;;;25.47;44.39;101381.13;4132456;28;20310;-74
2023/06/26 00:06:02;;;;;;;;;;;;;;;25.48;44.29;101385.53;4132501;28;19926;-75
2023/06/26 00:08:05;;;;;;;;;;;;;;;25.47;44.31;101383.81;4130165;28;19932;-74
2023/06/26 00:10:07;;;;;;;;;;;;;;;25.47;44.25;101391.03;4132132;28;20037;-74
2023/06/26 00:12:08;;;;;;;;;;;;;;;25.46;44.44;101389.34;4132470;28;20299;-75
2023/06/26 00:14:10;;;;;;;;;;;;;;;25.44;44.53;101389.47;4132281;28;19925;-75
2023/06/26 00:16:12;;;;;;;;;;;;;;;25.44;44.45;101391.31;4132412;28;20299;-74
2023/06/26 00:18:13;;;;;;;;;;;;;;;25.42;44.46;101391.47;4130991;28;19926;-74
2023/06/26 00:20:16;;;;;;;;;;;;;;;25.42;44.35;101390.59;4132171;28;19980;-75
2023/06/26 00:22:18;;;;;;;;;;;;;;;25.40;44.63;101388.03;4132197;28;19948;-75
2023/06/26 00:24:19;;;;;;;;;;;;;;;25.41;44.42;101392.44;4132188;28;20252;-75
2023/06/26 00:26:21;;;;;;;;;;;;;;;25.40;44.48;101398.81;4132036;28;20032;-75
2023/06/26 00:28:22;;;;;;;;;;;;;;;25.40;44.46;101400.66;4130988;28;19925;-75
2023/06/26 00:30:24;;;;;;;;;;;;;;;25.39;44.77;101405.19;4131677;28;19968;-74
2023/06/26 00:32:25;;;;;;;;;;;;;;;25.39;44.46;101398.97;4132031;28;20360;-74
2023/06/26 00:34:27;;;;;;;;;;;;;;;25.37;44.35;101399.03;4131967;28;19930;-74
2023/06/26 00:36:28;;;;;;;;;;;;;;;25.36;44.49;101403.59;4131508;28;19972;-74
2023/06/26 00:38:31;;;;;;;;;;;;;;;25.36;44.56;101402.75;4131079;28;19933;-74
2023/06/26 00:40:33;;;;;;;;;;;;;;;25.36;44.75;101410.81;4131949;28;19925;-74
2023/06/26 00:42:34;;;;;;;;;;;;;;;25.35;44.39;101414.50;4131811;28;19969;-74
2023/06/26 00:44:36;;;;;;;;;;;;;;;25.32;44.73;101415.63;4131628;28;20139;-74
2023/06/26 00:46:37;;;;;;;;;;;;;;;25.32;44.86;101417.44;4131225;28;19992;-75
2023/06/26 00:48:40;;;;;;;;;;;;;;;25.32;44.63;101420.13;4131229;28;19941;-74
2023/06/26 00:50:46;;;;;;;;;;;;;;;25.30;44.74;101425.66;4131792;28;20050;-73
2023/06/26 00:52:47;;;;;;;;;;;;;;;25.31;44.58;101421.13;4131858;28;19926;-74
2023/06/26 00:54:51;;;;;;;;;;;;;;;25.31;44.64;101421.13;4131337;28;19925;-75
2023/06/26 00:56:52;;;;;;;;;;;;;;;25.30;44.85;101430.19;4130847;28;19926;-74
2023/06/26 00:58:54;;;;;;;;;;;;;;;25.28;44.96;101424.94;4131133;28;20417;-74
2023/06/26 01:00:56;;;;;;;;;;;;;;;25.26;44.90;101429.59;4131556;28;20024;-73
2023/06/26 01:02:58;;;;;;;;;;;;;;;25.26;44.71;101429.59;4131663;28;19932;-73
2023/06/26 01:05:06;;;;;;;;;;;;;;;25.24;44.85;101431.59;4131678;28;20303;-73
2023/06/26 01:07:07;;;;;;;;;;;;;;;25.25;44.66;101433.28;4129597;28;19930;-74
2023/06/26 01:09:09;;;;;;;;;;;;;;;25.25;44.78;101435.13;4131543;28;19926;-74
2023/06/26 01:11:11;;;;;;;;;;;;;;;25.23;44.70;101437.94;4131527;28;19926;-73
2023/06/26 01:13:14;;;;;;;;;;;;;;;25.22;44.80;101436.25;4131223;28;20531;-74
2023/06/26 01:15:16;;;;;;;;;;;;;;;25.22;44.76;101430.00;4131465;28;19929;-74
2023/06/26 01:17:17;;;;;;;;;;;;;;;25.20;45.04;101432.81;4130523;28;20053;-74
2023/06/26 01:19:24;;;;;;;;;;;;;;;25.19;44.82;101437.38;4131333;28;20391;-74
2023/06/26 01:21:32;;;;;;;;;;;;;;;25.19;44.88;101437.38;4131476;28;19930;-73
2023/06/26 01:23:47;;;;;;;;;;;;;;;25.18;45.03;101442.88;4131551;28;20035;-74
2023/06/26 01:26:07;;;;;;;;;;;;;;;25.18;44.88;101445.59;4131639;28;19964;-74
2023/06/26 01:28:09;;;;;;;;;;;;;;;25.16;45.24;101453.75;4130293;28;19926;-73
2023/06/26 01:30:11;;;;;;;;;;;;;;;25.16;45.07;101447.53;4131445;28;20012;-73
2023/06/26 01:32:12;;;;;;;;;;;;;;;25.15;45.04;101452.09;4131483;28;19926;-73
2023/06/26 01:34:15;;;;;;;;;;;;;;;25.15;45.09;101451.22;4131107;28;19930;-74
2023/06/26 01:36:16;;;;;;;;;;;;;;;25.13;44.93;101459.44;4130177;28;19930;-74
2023/06/26 01:38:19;;;;;;;;;;;;;;;25.12;45.03;101457.72;4130367;28;19926;-73
2023/06/26 01:40:21;;;;;;;;;;;;;;;25.13;45.40;101461.25;4131384;28;19926;-73
2023/06/26 01:42:22;;;;;;;;;;;;;;;25.11;45.21;101460.56;4130907;28;20395;-74
2023/06/26 01:44:27;;;;;;;;;;;;;;;25.11;45.29;101463.25;4131250;28;19933;-75
2023/06/26 01:46:53;;;;;;;;;;;;;;;25.10;45.37;101466.91;4131143;28;19968;-73
2023/06/26 01:48:59;;;;;;;;;;;;;;;25.08;45.14;101468.88;4134073;28;19926;-75
2023/06/26 01:51:01;;;;;;;;;;;;;;;25.07;45.12;101476.09;4134374;28;19937;-75
2023/06/26 01:53:07;;;;;;;;;;;;;;;25.07;45.08;101480.63;4133425;28;19933;-74
2023/06/26 01:55:14;;;;;;;;;;;;;;;25.06;45.08;101477.09;4134604;28;20029;-74
2023/06/26 01:57:18;;;;;;;;;;;;;;;25.04;45.19;101477.22;4133497;28;19969;-74
2023/06/26 01:59:25;;;;;;;;;;;;;;;25.04;45.32;101479.91;4134302;28;19932;-74
2023/06/26 02:01:27;;;;;;;;;;;;;;;25.03;45.15;101480.03;4134522;28;19983;-75
2023/06/26 02:03:30;;;;;;;;;;;;;;;25.03;45.14;101486.28;4134299;28;19933;-75
2023/06/26 02:05:32;;;;;;;;;;;;;;;25.01;45.15;101485.56;4134396;28;19976;-75
2023/06/26 02:07:34;;;;;;;;;;;;;;;25.01;45.21;101479.31;4133188;28;19972;-76
2023/06/26 02:09:35;;;;;;;;;;;;;;;25.01;45.36;101488.25;4133981;28;20026;-75
2023/06/26 02:11:37;;;;;;;;;;;;;;;25.00;45.23;101489.22;4133832;28;20024;-75
2023/06/26 02:13:38;;;;;;;;;;;;;;;25.00;45.18;101491.06;4134375;28;20312;-75
2023/06/26 02:15:40;;;;;;;;;;;;;;;24.99;45.24;101489.34;4134189;28;19929;-75
2023/06/26 02:17:41;;;;;;;;;;;;;;;25.00;45.37;101499.16;4133292;28;20012;-75
2023/06/26 02:19:47;;;;;;;;;;;;;;;24.99;45.64;101500.13;4134217;28;19926;-75
2023/06/26 02:21:49;;;;;;;;;;;;;;;24.97;45.32;101502.94;4134110;28;19933;-75
2023/06/26 02:23:51;;;;;;;;;;;;;;;24.97;45.24;101499.38;4134184;28;19980;-75
2023/06/26 02:25:52;;;;;;;;;;;;;;;24.97;45.38;101499.38;4133889;28;20016;-75
2023/06/26 02:27:54;;;;;;;;;;;;;;;24.96;45.48;101503.06;4132930;28;20347;-77
2023/06/26 02:29:56;;;;;;;;;;;;;;;24.95;45.18;101501.38;4134074;28;19964;-75
2023/06/26 02:31:57;;;;;;;;;;;;;;;24.94;45.33;101503.19;4133677;28;20040;-75
2023/06/26 02:33:59;;;;;;;;;;;;;;;24.94;45.26;101507.75;4133919;28;19961;-76
2023/06/26 02:36:01;;;;;;;;;;;;;;;24.92;45.34;101505.16;4133794;28;19933;-76
2023/06/26 02:38:02;;;;;;;;;;;;;;;24.93;45.34;101506.88;4132748;28;19925;-75
2023/06/26 02:40:05;;;;;;;;;;;;;;;24.93;45.42;101516.78;4133354;28;19926;-76
2023/06/26 02:42:06;;;;;;;;;;;;;;;24.91;45.76;101525.00;4133654;28;20025;-75
2023/06/26 02:44:08;;;;;;;;;;;;;;;24.90;45.63;101527.78;4133643;28;19984;-75
2023/06/26 02:46:09;;;;;;;;;;;;;;;24.89;45.65;101529.66;4133380;28;19965;-75
2023/06/26 02:48:11;;;;;;;;;;;;;;;24.88;45.48;101534.16;4132550;28;20407;-75
2023/06/26 02:50:12;;;;;;;;;;;;;;;24.87;45.40;101534.28;4133448;28;19968;-75
2023/06/26 02:52:14;;;;;;;;;;;;;;;24.86;45.23;101529.88;4132390;28;20374;-75
2023/06/26 02:54:15;;;;;;;;;;;;;;;24.85;45.38;101534.44;4133084;28;19932;-76
2023/06/26 02:56:17;;;;;;;;;;;;;;;24.84;45.42;101531.88;4133666;28;19933;-75
2023/06/26 02:58:18;;;;;;;;;;;;;;;24.83;45.44;101536.38;4132236;28;19926;-76
2023/06/26 03:00:20;;;;;;;;;;;;;;;24.83;45.33;101535.53;4133476;28;20343;-75
2023/06/26 03:02:21;;;;;;;;;;;;;;;24.82;45.40;101534.66;4133331;28;19933;-75
2023/06/26 03:04:23;;;;;;;;;;;;;;;24.82;45.77;101533.84;4133450;28;19926;-74
2023/06/26 03:06:25;;;;;;;;;;;;;;;24.81;45.37;101526.75;4133344;28;19972;-75
2023/06/26 03:08:26;;;;;;;;;;;;;;;24.80;45.44;101528.59;4131974;28;19980;-75
2023/06/26 03:10:28;;;;;;;;;;;;;;;24.79;45.63;101532.25;4133290;28;20386;-75
2023/06/26 03:12:30;;;;;;;;;;;;;;;24.79;45.66;101537.63;4133255;28;19932;-74
2023/06/26 03:14:31;;;;;;;;;;;;;;;24.78;45.75;101535.09;4133229;28;19940;-74
2023/06/26 03:16:33;;;;;;;;;;;;;;;24.78;45.70;101540.47;4133282;28;19926;-75
2023/06/26 03:18:35;;;;;;;;;;;;;;;24.78;45.38;101535.91;4131944;28;20000;-75
2023/06/26 03:20:36;;;;;;;;;;;;;;;24.77;45.46;101542.28;4133160;28;19933;-75
2023/06/26 03:22:38;;;;;;;;;;;;;;;24.76;45.47;101539.72;4133211;28;19941;-75
2023/06/26 03:24:40;;;;;;;;;;;;;;;24.76;45.64;101542.41;4132757;28;19932;-75
2023/06/26 03:26:41;;;;;;;;;;;;;;;24.74;45.47;101545.25;4132994;28;19965;-75
2023/06/26 03:28:46;;;;;;;;;;;;;;;24.74;45.47;101541.69;4130692;28;19929;-76
2023/06/26 03:30:47;;;;;;;;;;;;;;;24.73;45.38;101548.91;4133117;28;19926;-75
2023/06/26 03:32:49;;;;;;;;;;;;;;;24.72;45.50;101541.81;4132932;28;19968;-75
2023/06/26 03:34:52;;;;;;;;;;;;;;;24.72;45.38;101548.03;4132785;28;20021;-74
2023/06/26 03:36:54;;;;;;;;;;;;;;;24.72;45.47;101555.25;4133017;28;19926;-75
2023/06/26 03:38:56;;;;;;;;;;;;;;;24.70;45.34;101551.84;4131449;28;19973;-75
2023/06/26 03:40:58;;;;;;;;;;;;;;;24.70;45.75;101560.78;4132755;28;19934;-75
2023/06/26 03:43:00;;;;;;;;;;;;;;;24.70;45.44;101567.97;4132770;28;19926;-75
2023/06/26 03:45:02;;;;;;;;;;;;;;;24.69;45.38;101569.81;4132832;28;19964;-75
2023/06/26 03:47:03;;;;;;;;;;;;;;;24.68;45.70;101564.56;4132522;28;19976;-75
2023/06/26 03:49:05;;;;;;;;;;;;;;;24.66;45.35;101562.00;4131576;28;19968;-74
2023/06/26 03:51:09;;;;;;;;;;;;;;;24.68;45.74;101572.63;4132647;28;19926;-74
2023/06/26 03:53:11;;;;;;;;;;;;;;;24.67;45.62;101573.63;4132563;28;20387;-75
2023/06/26 03:55:12;;;;;;;;;;;;;;;24.66;45.53;101579.97;4132645;28;20013;-74
2023/06/26 03:57:14;;;;;;;;;;;;;;;24.65;45.58;101589.84;4132233;28;19925;-75
2023/06/26 03:59:15;;;;;;;;;;;;;;;24.64;45.46;101585.47;4132033;28;20020;-75
2023/06/26 04:01:17;;;;;;;;;;;;;;;24.63;45.43;101589.13;4132395;28;19925;-75
2023/06/26 04:03:19;;;;;;;;;;;;;;;24.63;45.77;101586.44;4131360;28;19934;-75
2023/06/26 04:05:20;;;;;;;;;;;;;;;24.62;45.58;101589.22;4132527;28;19958;-74
2023/06/26 04:07:22;;;;;;;;;;;;;;;24.62;45.65;101597.31;4131448;28;19926;-75
2023/06/26 04:09:24;;;;;;;;;;;;;;;24.60;45.45;101594.75;4132065;28;19932;-75
2023/06/26 04:11:26;;;;;;;;;;;;;;;24.61;45.74;101598.31;4131517;28;19926;-74
2023/06/26 04:13:28;;;;;;;;;;;;;;;24.60;45.70;101600.13;4132237;28;19934;-74
2023/06/26 04:15:29;;;;;;;;;;;;;;;24.60;45.49;101599.28;4132225;28;19926;-74
2023/06/26 04:17:31;;;;;;;;;;;;;;;24.59;45.43;101609.16;4131532;28;19926;-75
2023/06/26 04:19:33;;;;;;;;;;;;;;;24.58;45.51;101607.44;4131933;28;20021;-74
2023/06/26 04:21:36;;;;;;;;;;;;;;;24.58;45.70;101615.53;4131943;28;19961;-74
2023/06/26 04:23:38;;;;;;;;;;;;;;;24.56;45.41;101612.97;4132236;28;19926;-75
2023/06/26 04:25:39;;;;;;;;;;;;;;;24.58;45.46;101625.44;4132233;28;19926;-74
2023/06/26 04:27:41;;;;;;;;;;;;;;;24.57;45.40;101613.84;4131242;28;19925;-73
2023/06/26 04:29:47;;;;;;;;;;;;;;;24.56;45.43;101621.03;4131911;28;20295;-74
2023/06/26 04:31:49;;;;;;;;;;;;;;;24.55;45.85;101615.78;4131854;28;19936;-74
2023/06/26 04:33:50;;;;;;;;;;;;;;;24.54;45.53;101622.97;4131985;28;20303;-74
2023/06/26 04:35:52;;;;;;;;;;;;;;;24.53;45.42;101617.72;4131901;28;19948;-74
2023/06/26 04:37:59;;;;;;;;;;;;;;;24.53;45.41;101625.81;4131005;28;20399;-74
2023/06/26 04:40:07;;;;;;;;;;;;;;;24.53;45.52;101623.13;4132053;28;19926;-74
2023/06/26 04:42:13;;;;;;;;;;;;;;;24.53;45.70;101625.81;4131701;28;20021;-74
2023/06/26 04:44:15;;;;;;;;;;;;;;;24.51;45.33;101625.94;4131755;28;20004;-74
2023/06/26 04:46:16;;;;;;;;;;;;;;;24.52;45.83;101626.78;4131541;28;19926;-74
2023/06/26 04:48:18;;;;;;;;;;;;;;;24.51;45.62;101625.06;4130898;28;19926;-75
2023/06/26 04:50:19;;;;;;;;;;;;;;;24.50;45.56;101632.28;4131671;28;19984;-74
2023/06/26 04:52:26;;;;;;;;;;;;;;;24.50;45.81;101629.59;4131454;28;20009;-74
2023/06/26 04:54:32;;;;;;;;;;;;;;;24.50;45.42;101636.81;4131746;28;20172;-75
2023/06/26 04:56:34;;;;;;;;;;;;;;;24.49;45.42;101635.09;4131667;28;19926;-74
2023/06/26 04:58:35;;;;;;;;;;;;;;;24.49;45.42;101633.25;4130911;28;19926;-76
2023/06/26 05:00:37;;;;;;;;;;;;;;;24.48;45.48;101636.09;4131749;28;19926;-76
2023/06/26 05:02:39;;;;;;;;;;;;;;;24.47;45.43;101635.22;4131582;28;19933;-75
2023/06/26 05:04:46;;;;;;;;;;;;;;;24.47;45.42;101645.13;4131040;28;19925;-76
2023/06/26 05:06:48;;;;;;;;;;;;;;;24.47;45.43;101645.13;4131637;28;19926;-76
2023/06/26 05:08:50;;;;;;;;;;;;;;;24.46;45.46;101644.28;4130675;28;20005;-76
2023/06/26 05:10:53;;;;;;;;;;;;;;;24.46;45.37;101646.97;4131587;28;19932;-75
2023/06/26 05:12:54;;;;;;;;;;;;;;;24.46;45.49;101654.16;4131582;28;19929;-75
2023/06/26 05:14:56;;;;;;;;;;;;;;;24.46;45.39;101654.16;4131382;28;19925;-75
2023/06/26 05:17:03;;;;;;;;;;;;;;;24.46;45.46;101663.09;4131315;28;19926;-76
2023/06/26 05:19:04;;;;;;;;;;;;;;;24.45;45.40;101656.00;4130214;28;19926;-75
2023/06/26 05:21:06;;;;;;;;;;;;;;;24.44;45.41;101656.16;4131466;28;19929;-76
2023/06/26 05:23:10;;;;;;;;;;;;;;;24.45;45.57;101664.06;4131678;28;20449;-76
2023/06/26 05:25:12;;;;;;;;;;;;;;;24.44;45.68;101664.22;4131563;28;20375;-76
2023/06/26 05:27:21;;;;;;;;;;;;;;;24.43;45.37;101666.03;4131510;28;19926;-75
2023/06/26 05:29:22;;;;;;;;;;;;;;;24.43;45.47;101668.72;4130538;28;20354;-75
2023/06/26 05:31:30;;;;;;;;;;;;;;;24.43;45.34;101674.09;4131426;28;19930;-75
2023/06/26 05:33:34;;;;;;;;;;;;;;;24.43;45.48;101668.72;4131083;28;20001;-75
2023/06/26 05:35:36;;;;;;;;;;;;;;;24.42;45.36;101668.84;4131459;28;19926;-75
2023/06/26 05:37:37;;;;;;;;;;;;;;;24.42;45.41;101674.22;4130763;28;19926;-76
2023/06/26 05:39:39;;;;;;;;;;;;;;;24.40;45.60;101667.13;4130895;28;20490;-76
2023/06/26 05:41:41;;;;;;;;;;;;;;;24.40;45.52;101672.50;4131127;28;19972;-76
2023/06/26 05:43:47;;;;;;;;;;;;;;;24.39;45.39;101670.78;4131319;28;20350;-76
2023/06/26 05:45:49;;;;;;;;;;;;;;;24.38;45.40;101674.44;4131292;28;19940;-76
2023/06/26 05:47:51;;;;;;;;;;;;;;;24.38;45.80;101668.22;4130253;28;19964;-76
2023/06/26 05:49:53;;;;;;;;;;;;;;;24.38;45.34;101674.44;4130914;28;19926;-76
2023/06/26 05:51:55;;;;;;;;;;;;;;;24.37;45.44;101675.44;4131493;28;19930;-75
2023/06/26 05:54:01;;;;;;;;;;;;;;;24.38;45.33;101670.91;4131330;28;20319;-76
2023/06/26 05:56:08;;;;;;;;;;;;;;;24.38;45.47;101676.28;4131237;28;19926;-75
2023/06/26 05:58:10;;;;;;;;;;;;;;;24.36;45.42;101676.44;4130193;28;19936;-75
2023/06/26 06:00:11;;;;;;;;;;;;;;;24.37;45.54;101680.81;4131089;28;19930;-75
2023/06/26 06:02:13;;;;;;;;;;;;;;;24.36;45.36;101676.44;4130704;28;19981;-75
2023/06/26 06:04:15;;;;;;;;;;;;;;;24.36;45.57;101679.13;4131221;28;20303;-75
2023/06/26 06:06:22;;;;;;;;;;;;;;;24.37;45.32;101682.66;4130988;28;19965;-75
2023/06/26 06:08:28;;;;;;;;;;;;;;;24.36;45.54;101678.25;4130268;28;19929;-75
2023/06/26 06:10:30;;;;;;;;;;;;;;;24.34;45.54;101678.38;4131014;28;20315;-73
2023/06/26 06:12:31;;;;;;;;;;;;;;;24.34;45.36;101686.44;4130939;28;19925;-75
2023/06/26 06:14:33;;;;;;;;;;;;;;;24.34;45.27;101683.75;4131048;28;19925;-74
2023/06/26 06:16:35;;;;;;;;;;;;;;;24.35;45.61;101685.47;4131162;28;19948;-74
2023/06/26 06:18:41;;;;;;;;;;;;;;;24.35;45.31;101687.28;4130009;28;20310;-77
2023/06/26 06:20:43;;;;;;;;;;;;;;;24.34;45.36;101691.81;4131157;28;20413;-74
2023/06/26 06:22:45;;;;;;;;;;;;;;;24.34;45.70;101681.06;4129732;28;19965;-77
2023/06/26 06:24:46;;;;;;;;;;;;;;;24.33;45.31;101683.88;4130872;28;19953;-75
2023/06/26 06:26:48;;;;;;;;;;;;;;;24.32;45.66;101685.69;4130986;28;19926;-75
2023/06/26 06:28:50;;;;;;;;;;;;;;;24.32;45.39;101683.00;4129957;28;19930;-75
2023/06/26 06:30:51;;;;;;;;;;;;;;;24.32;45.39;101690.22;4131005;28;19926;-75
2023/06/26 06:32:53;;;;;;;;;;;;;;;24.31;45.47;101702.78;4130650;28;19926;-74
2023/06/26 06:34:55;;;;;;;;;;;;;;;24.32;45.35;101711.75;4133458;28;19953;-74
2023/06/26 06:36:56;;;;;;;;;;;;;;;24.31;45.64;101718.94;4133964;28;19955;-74
2023/06/26 06:38:58;;;;;;;;;;;;;;;24.32;45.63;101723.34;4132882;28;20020;-74
2023/06/26 06:41:00;;;;;;;;;;;;;;;24.32;45.23;101717.94;4133844;28;20463;-74
2023/06/26 06:43:02;;;;;;;;;;;;;;;24.33;45.21;101722.34;4133706;28;20028;-75
2023/06/26 06:45:04;;;;;;;;;;;;;;;24.34;45.54;101726.75;4133896;28;19926;-75
2023/06/26 06:47:06;;;;;;;;;;;;;;;24.35;45.31;101727.59;4133202;28;19926;-75
2023/06/26 06:49:08;;;;;;;;;;;;;;;24.34;45.22;101724.06;4131416;28;19925;-75
2023/06/26 06:51:10;;;;;;;;;;;;;;;24.33;45.19;101719.66;4133788;28;20037;-75
2023/06/26 06:53:11;;;;;;;;;;;;;;;24.34;45.52;101729.47;4133548;28;19926;-76
2023/06/26 06:55:13;;;;;;;;;;;;;;;24.33;45.35;101732.28;4133594;28;19932;-75
2023/06/26 06:57:14;;;;;;;;;;;;;;;24.33;45.26;101722.34;4133531;28;19932;-75
2023/06/26 06:59:16;;;;;;;;;;;;;;;24.33;45.19;101727.75;4132582;28;19925;-75
2023/06/26 07:01:22;;;;;;;;;;;;;;;24.34;45.51;101728.59;4133348;28;19929;-75
2023/06/26 07:03:24;;;;;;;;;;;;;;;24.34;45.44;101731.28;4133543;28;19925;-75
2023/06/26 07:05:26;;;;;;;;;;;;;;;24.33;45.31;101727.75;4133504;28;20395;-74
2023/06/26 07:07:28;;;;;;;;;;;;;;;24.32;45.20;101733.25;4133154;28;19969;-75
2023/06/26 07:09:30;;;;;;;;;;;;;;;24.33;45.16;101726.91;4132252;28;20395;-75
2023/06/26 07:11:31;;;;;;;;;;;;;;;24.32;45.45;101725.19;4133228;28;20309;-75
2023/06/26 07:13:33;;;;;;;;;;;;;;;24.34;45.14;101726.75;4133443;28;19971;-75
2023/06/26 07:15:35;;;;;;;;;;;;;;;24.36;45.31;101719.44;4127248;28;20348;-71
2023/06/26 07:17:38;;;;;;;;;;;;;;;24.49;44.93;101731.91;4117357;28;19926;-69
2023/06/26 07:19:40;;;;;;;;;;;;;;;24.48;44.86;101717.59;4116053;28;20378;-74
2023/06/26 07:21:43;;;;;;;;;;;;;;;24.50;44.94;101723.72;4117025;28;19926;-72
2023/06/26 07:23:44;;;;;;;;;;;;;;;24.53;44.77;101728.00;4117061;28;19926;-76
2023/06/26 07:25:46;;;;;;;;;;;;;;;24.53;44.91;101745.00;4117036;28;19973;-75
2023/06/26 07:27:47;;;;;;;;;;;;;;;24.63;44.85;101738.88;4116979;28;19926;-74
2023/06/26 07:29:49;;;;;;;;;;;;;;;24.66;45.17;101736.00;4115736;28;20308;-74
2023/06/26 07:31:51;;;;;;;;;;;;;;;24.65;45.38;101739.63;4116086;28;19976;-76
2023/06/26 07:33:52;;;;;;;;;;;;;;;24.67;45.51;101740.41;4115838;28;20342;-72
2023/06/26 07:35:54;;;;;;;;;;;;;;;24.66;45.27;101736.84;4116344;28;19934;-72
2023/06/26 07:37:55;;;;;;;;;;;;;;;24.65;45.30;101745.84;4116847;28;19926;-72
2023/06/26 07:39:57;;;;;;;;;;;;;;;24.64;45.34;101738.78;4115823;28;20022;-71
2023/06/26 07:42:01;;;;;;;;;;;;;;;24.67;45.28;101743.09;4116676;28;19930;-72
2023/06/26 07:44:03;;;;;;;;;;;;;;;24.67;45.32;101737.72;4116440;28;20365;-71
2023/06/26 07:46:04;;;;;;;;;;;;;;;24.66;45.23;101741.38;4115492;28;20411;-72
2023/06/26 07:48:07;;;;;;;;;;;;;;;24.67;45.40;101743.94;4116459;28;19949;-72
2023/06/26 07:50:08;;;;;;;;;;;;;;;24.66;45.11;101755.66;4132276;28;19930;-71
2023/06/26 07:52:10;;;;;;;;;;;;;;;24.64;45.20;101765.69;4132713;28;19926;-71
2023/06/26 07:54:12;;;;;;;;;;;;;;;24.62;45.13;101762.25;4132746;28;20037;-72
2023/06/26 07:56:14;;;;;;;;;;;;;;;24.59;45.19;101761.63;4132398;28;19980;-71
2023/06/26 07:58:15;;;;;;;;;;;;;;;24.58;45.18;101755.38;4131371;28;19925;-71
2023/06/26 08:00:17;;;;;;;;;;;;;;;24.61;45.17;101763.22;4132317;28;20390;-72
2023/06/26 08:02:18;;;;;;;;;;;;;;;24.60;45.43;101756.13;4132571;28;19949;-71
2023/06/26 08:04:21;;;;;;;;;;;;;;;24.58;44.96;101762.59;4132518;28;19926;-71
2023/06/26 08:06:23;;;;;;;;;;;;;;;24.58;44.93;101755.38;4132467;28;20311;-71
2023/06/26 08:08:25;;;;;;;;;;;;;;;24.61;45.11;101759.69;4131657;28;20028;-71
2023/06/26 08:10:27;;;;;;;;;;;;;;;24.58;44.96;101763.44;4132171;28;19932;-71
2023/06/26 08:12:33;;;;;;;;;;;;;;;24.56;44.88;101765.41;4132331;28;19926;-71
2023/06/26 08:14:40;;;;;;;;;;;;;;;24.58;45.05;101768.81;4132023;28;20299;-71
2023/06/26 08:16:42;;;;;;;;;;;;;;;24.58;44.78;101760.75;4132102;28;19937;-71
2023/06/26 08:18:46;;;;;;;;;;;;;;;24.56;44.90;101771.63;4131259;28;19929;-71
2023/06/26 08:20:48;;;;;;;;;;;;;;;24.54;45.09;101770.91;4132163;28;20303;-72
2023/06/26 08:22:52;;;;;;;;;;;;;;;24.56;45.23;101770.78;4131978;28;19926;-72
2023/06/26 08:24:53;;;;;;;;;;;;;;;24.56;44.76;101760.88;4132306;28;20298;-72
2023/06/26 08:26:55;;;;;;;;;;;;;;;24.56;44.98;101770.78;4131976;28;19945;-72
2023/06/26 08:28:57;;;;;;;;;;;;;;;24.53;44.92;101774.59;4130645;28;19933;-72
2023/06/26 08:30:59;;;;;;;;;;;;;;;24.51;45.06;101778.34;4132184;28;20335;-71
2023/06/26 08:33:01;;;;;;;;;;;;;;;24.49;45.16;101762.34;4131858;28;19929;-71
2023/06/26 08:35:03;;;;;;;;;;;;;;;24.49;45.32;101769.56;4132143;28;20338;-73
2023/06/26 08:37:04;;;;;;;;;;;;;;;24.49;45.07;101772.25;4132248;28;20028;-71
2023/06/26 08:39:08;;;;;;;;;;;;;;;24.49;45.05;101767.72;4130840;28;19926;-71
2023/06/26 08:41:10;;;;;;;;;;;;;;;24.51;44.82;101755.03;4132134;28;20358;-72
2023/06/26 08:43:11;;;;;;;;;;;;;;;24.52;45.12;101758.56;4131692;28;20364;-74
2023/06/26 08:45:13;;;;;;;;;;;;;;;24.55;44.95;101766.38;4131863;28;19961;-72
2023/06/26 08:47:15;;;;;;;;;;;;;;;24.53;44.91;101771.03;4131628;28;19926;-72
2023/06/26 08:49:43;;;;;;;;;;;;;;;24.52;44.75;101761.25;4130937;28;19930;-72
2023/06/26 08:51:50;;;;;;;;;;;;;;;24.49;45.12;101765.03;4066216;29;19934;-73
2023/06/26 08:53:58;;;;;;;;;;;;;;;24.48;44.98;101771.38;4066097;29;19931;-73
2023/06/26 08:56:01;;;;;;;;;;;;;;;24.50;45.28;101760.53;4066032;29;20425;-73
2023/06/26 08:58:03;;;;;;;;;;;;;;;24.51;44.74;101760.41;4065697;29;19986;-73
2023/06/26 09:00:08;;;;;;;;;;;;;;;24.54;44.68;101761.97;4065085;29;20346;-73
2023/06/26 09:02:10;;;;;;;;;;;;;;;24.53;45.06;101771.03;4066239;29;19927;-72
2023/06/26 09:04:12;;;;;;;;;;;;;;;24.53;44.78;101771.91;4066243;29;20014;-73
2023/06/26 09:06:13;;;;;;;;;;;;;;;24.52;45.00;101770.19;4066134;29;20191;-73
2023/06/26 09:08:15;;;;;;;;;;;;;;;24.51;44.79;101765.78;4066171;29;20397;-73
2023/06/26 09:10:17;;;;;;;;;;;;;;;24.54;44.80;101770.91;4065084;29;20025;-73
2023/06/26 09:12:19;;;;;;;;;;;;;;;24.55;45.11;101777.16;4065591;29;19931;-73
2023/06/26 09:14:21;;;;;;;;;;;;;;;24.55;45.04;101766.38;4066124;29;20399;-73
2023/06/26 09:16:26;;;;;;;;;;;;;;;24.53;45.08;101768.34;4066002;29;19927;-72
2023/06/26 09:18:28;;;;;;;;;;;;;;;24.53;44.99;101771.03;4065367;29;19958;-74
2023/06/26 09:20:32;;;;;;;;;;;;;;;24.55;44.67;101774.47;4065772;29;19927;-73
2023/06/26 09:22:38;;;;;;;;;;;;;;;24.55;44.95;101775.31;4065977;29;20447;-73
2023/06/26 09:24:40;;;;;;;;;;;;;;;24.54;44.77;101765.50;4065954;29;19931;-73
2023/06/26 09:26:42;;;;;;;;;;;;;;;24.55;44.67;101761.84;4065855;29;20018;-73
2023/06/26 09:28:44;;;;;;;;;;;;;;;24.53;44.59;101760.28;4094804;28;20053;-74
2023/06/26 09:30:46;;;;;;;;;;;;;;;24.51;44.63;101765.78;4131743;28;19930;-73
2023/06/26 09:32:49;;;;;;;;;;;;;;;24.50;44.76;101768.59;4130184;28;19925;-73
2023/06/26 09:34:52;;;;;;;;;;;;;;;24.51;44.61;101762.22;4131421;28;20343;-73
2023/06/26 09:36:55;;;;;;;;;;;;;;;24.51;44.88;101762.22;4131619;28;19925;-73
2023/06/26 09:38:56;;;;;;;;;;;;;;;24.51;44.58;101764.91;4130461;28;19992;-72
2023/06/26 09:40:58;;;;;;;;;;;;;;;24.50;44.55;101760.53;4130810;28;20459;-72
2023/06/26 09:43:06;;;;;;;;;;;;;;;24.49;44.62;101759.66;4131336;28;19926;-73
2023/06/26 09:45:17;;;;;;;;;;;;;;;24.50;44.62;101764.06;4131450;28;19949;-72
2023/06/26 09:47:19;;;;;;;;;;;;;;;24.52;44.86;101762.13;4131422;28;19936;-73
2023/06/26 09:49:21;;;;;;;;;;;;;;;24.51;44.76;101765.78;4130134;28;19926;-73
2023/06/26 09:51:22;;;;;;;;;;;;;;;24.51;44.61;101764.91;4131104;28;19936;-73
2023/06/26 09:53:25;;;;;;;;;;;;;;;24.50;44.54;101763.22;4130115;28;19989;-73
2023/06/26 09:55:27;;;;;;;;;;;;;;;24.52;44.51;101761.25;4130954;28;19926;-73
2023/06/26 09:57:28;;;;;;;;;;;;;;;24.53;44.49;101773.72;4131239;28;19973;-72
2023/06/26 09:59:30;;;;;;;;;;;;;;;24.53;44.74;101779.09;4130165;28;20028;-72
2023/06/26 10:01:32;;;;;;;;;;;;;;;24.51;44.49;101787.28;4131046;28;19933;-72
2023/06/26 10:03:34;;;;;;;;;;;;;;;24.51;44.47;101784.59;4129734;28;19979;-72
2023/06/26 10:05:36;;;;;;;;;;;;;;;24.52;44.79;101785.44;4131064;28;19973;-72
2023/06/26 10:07:38;;;;;;;;;;;;;;;24.52;44.43;101785.44;4131223;28;19926;-72
2023/06/26 10:09:44;;;;;;;;;;;;;;;24.50;44.66;101785.56;4132318;28;19949;-73
2023/06/26 10:11:45;;;;;;;;;;;;;;;24.52;44.49;101788.13;4134338;28;19960;-73
2023/06/26 10:13:49;;;;;;;;;;;;;;;24.51;44.76;101783.72;4134108;28;20391;-72
2023/06/26 10:15:51;;;;;;;;;;;;;;;24.50;44.34;101773.97;4134323;28;19926;-73
2023/06/26 10:17:55;;;;;;;;;;;;;;;24.52;44.80;101780.06;4134314;28;19980;-73
2023/06/26 10:19:58;;;;;;;;;;;;;;;24.51;44.41;101781.91;4133192;28;19926;-72
2023/06/26 10:22:01;;;;;;;;;;;;;;;24.50;44.29;101782.03;4132818;28;19926;-72
2023/06/26 10:24:04;;;;;;;;;;;;;;;24.52;43.99;101791.69;4133980;28;19952;-72
2023/06/26 10:26:07;;;;;;;;;;;;;;;24.50;44.39;101792.78;4134168;28;20350;-72
2023/06/26 10:28:09;;;;;;;;;;;;;;;24.48;44.31;101798.28;4133977;28;19926;-72
2023/06/26 10:30:13;;;;;;;;;;;;;;;24.50;44.39;101801.72;4132943;28;20390;-72